Time;durP1;ratioP1;P1;durP2;ratioP2;P2;SDS_P1;SDS_P2;PMS_P1;PMS_P2;Temp;Humidity;BMP_temperature;BMP_pressure;BME280_temperature;BME280_humidity;BME280_pressure;Samples;Min_cycle;Max_cycle;Signal;HPM_P1;HPM_P2
2023/05/25 00:00:26;;;;;;;7.00;5.40;;;;;;;13.43;100.00;93095.91;5035607;28;20044;-72
2023/05/25 00:02:54;;;;;;;6.93;5.65;;;;;;;13.39;100.00;93090.44;5049664;28;20052;-72
2023/05/25 00:05:26;;;;;;;7.60;5.93;;;;;;;13.40;100.00;93091.19;5049445;28;20146;-72
2023/05/25 00:07:54;;;;;;;7.50;5.43;;;;;;;13.41;100.00;93090.97;5049009;28;20065;-72
2023/05/25 00:10:22;;;;;;;7.55;5.47;;;;;;;13.36;100.00;93083.13;5048811;28;20706;-72
2023/05/25 00:12:49;;;;;;;6.88;5.15;;;;;;;13.33;100.00;93094.69;5049467;28;20045;-72
2023/05/25 00:15:16;;;;;;;8.65;6.25;;;;;;;13.28;100.00;93086.88;5025486;28;20045;-72
2023/05/25 00:17:42;;;;;;;9.60;5.93;;;;;;;13.28;100.00;93096.41;5048828;28;20049;-71
2023/05/25 00:20:10;;;;;;;6.93;5.55;;;;;;;13.26;100.00;93091.47;5049047;28;20041;-72
2023/05/25 00:22:37;;;;;;;8.98;5.45;;;;;;;13.22;100.00;93085.19;5048257;28;20045;-72
2023/05/25 00:25:04;;;;;;;7.55;5.85;;;;;;;13.17;100.00;93087.69;5048653;28;20049;-72
2023/05/25 00:27:32;;;;;;;8.25;5.85;;;;;;;13.16;100.00;93089.50;5043514;28;20052;-72
2023/05/25 00:29:59;;;;;;;8.25;6.28;;;;;;;13.15;100.00;93087.13;5041369;28;20053;-72
2023/05/25 00:32:26;;;;;;;8.63;6.03;;;;;;;13.10;100.00;93091.16;5049042;28;20314;-73
2023/05/25 00:34:54;;;;;;;8.35;5.80;;;;;;;12.98;100.00;93087.84;5049295;28;20111;-72
2023/05/25 00:37:21;;;;;;;8.18;5.43;;;;;;;13.03;100.00;93095.69;5048247;28;20493;-72
2023/05/25 00:39:47;;;;;;;7.18;5.72;;;;;;;13.03;100.00;93098.25;5035846;28;20588;-72
2023/05/25 00:42:15;;;;;;;7.88;5.75;;;;;;;13.05;100.00;93101.38;5048694;28;20568;-72
2023/05/25 00:44:43;;;;;;;9.05;6.15;;;;;;;13.06;100.00;93102.94;5048677;28;20049;-72
2023/05/25 00:47:11;;;;;;;6.93;6.00;;;;;;;13.05;100.00;93098.81;5048365;28;20045;-72
2023/05/25 00:49:38;;;;;;;11.45;6.32;;;;;;;13.02;100.00;93101.84;5048672;28;20051;-72
2023/05/25 00:52:06;;;;;;;9.15;6.38;;;;;;;13.01;100.00;93102.84;5048026;28;20449;-72
2023/05/25 00:54:34;;;;;;;9.43;5.68;;;;;;;12.89;100.00;93092.56;5047937;28;20417;-72
2023/05/25 00:57:03;;;;;;;7.90;5.75;;;;;;;12.98;100.00;93102.50;5043895;28;20049;-72
2023/05/25 00:59:34;;;;;;;8.00;5.32;;;;;;;12.94;100.00;93104.75;5038221;28;20132;-72
2023/05/25 01:02:05;;;;;;;9.32;5.70;;;;;;;12.83;100.00;93096.06;5045723;28;20063;-72
2023/05/25 01:04:35;;;;;;;8.38;5.80;;;;;;;12.85;100.00;93101.75;5048098;28;20053;-73
2023/05/25 01:07:05;;;;;;;7.65;5.90;;;;;;;12.70;100.00;93095.25;5048061;28;20071;-72
2023/05/25 01:09:34;;;;;;;10.55;6.35;;;;;;;12.70;100.00;93105.56;5048309;28;20103;-72
2023/05/25 01:12:02;;;;;;;8.57;6.53;;;;;;;12.65;100.00;93102.88;5022132;28;20072;-72
2023/05/25 01:14:30;;;;;;;7.78;6.13;;;;;;;12.62;100.00;93107.69;5047640;28;20053;-72
2023/05/25 01:16:58;;;;;;;9.55;6.63;;;;;;;12.54;100.00;93104.47;5047598;28;20565;-72
2023/05/25 01:19:27;;;;;;;8.40;6.40;;;;;;;12.55;100.00;93106.03;5046583;28;20095;-72
2023/05/25 01:22:03;;;;;;;11.90;7.25;;;;;;;12.49;100.00;93101.75;5043953;28;20080;-73
2023/05/25 01:24:41;;;;;;;12.05;7.32;;;;;;;12.49;100.00;93099.19;5048166;28;20045;-72
2023/05/25 01:27:12;;;;;;;9.57;6.90;;;;;;;12.50;100.00;93099.97;5045563;28;20636;-72
2023/05/25 01:29:42;;;;;;;10.93;7.13;;;;;;;12.37;100.00;93088.09;5035398;28;20044;-72
2023/05/25 01:32:09;;;;;;;9.60;6.85;;;;;;;12.45;100.00;93099.88;5047663;28;20044;-72
2023/05/25 01:34:37;;;;;;;10.63;6.88;;;;;;;12.46;100.00;93097.06;5047748;28;20057;-72
2023/05/25 01:37:06;;;;;;;11.52;7.15;;;;;;;12.41;100.00;93097.72;5047242;28;20049;-72
2023/05/25 01:39:32;;;;;;;9.27;6.63;;;;;;;12.35;100.00;93085.75;5047661;28;20095;-72
2023/05/25 01:42:00;;;;;;;13.57;7.40;;;;;;;12.27;100.00;93073.97;5047649;28;20048;-72
2023/05/25 01:44:28;;;;;;;12.70;7.57;;;;;;;12.37;100.00;93096.59;5047695;28;20098;-72
2023/05/25 01:47:03;;;;;;;12.05;7.45;;;;;;;12.34;100.00;93086.75;5047367;28;20045;-72
2023/05/25 01:49:38;;;;;;;9.27;7.22;;;;;;;12.31;100.00;93078.69;5047469;28;20520;-72
2023/05/25 01:52:15;;;;;;;9.85;7.07;;;;;;;12.23;100.00;93079.81;5047507;28;20448;-73
2023/05/25 01:54:51;;;;;;;9.88;7.90;;;;;;;11.71;100.00;93015.00;5047567;28;20568;-72
2023/05/25 01:57:19;;;;;;;12.57;7.47;;;;;;;12.14;100.00;93090.41;5047466;28;20053;-72
2023/05/25 01:59:47;;;;;;;11.98;7.80;;;;;;;12.10;100.00;93096.25;5047198;28;20500;-72
2023/05/25 02:02:15;;;;;;;11.32;7.85;;;;;;;12.02;100.00;93087.03;5047250;28;20103;-72
2023/05/25 02:04:42;;;;;;;11.73;7.75;;;;;;;12.02;100.00;93092.97;5046996;28;20061;-72
2023/05/25 02:07:11;;;;;;;13.18;8.43;;;;;;;12.02;100.00;93098.13;5046913;28;20480;-72
2023/05/25 02:09:38;;;;;;;11.05;7.47;;;;;;;12.01;100.00;93091.41;5047371;28;20056;-72
2023/05/25 02:12:06;;;;;;;12.02;7.90;;;;;;;12.01;100.00;93091.41;5047437;28;20163;-72
2023/05/25 02:14:33;;;;;;;9.38;7.28;;;;;;;12.02;100.00;93094.75;5047164;28;20526;-72
2023/05/25 02:17:01;;;;;;;15.57;8.23;;;;;;;12.03;100.00;93093.72;5047266;28;20052;-72
2023/05/25 02:19:28;;;;;;;13.38;8.10;;;;;;;12.00;100.00;93094.97;5046653;28;20578;-72
2023/05/25 02:21:54;;;;;;;11.98;7.80;;;;;;;11.98;100.00;93101.31;5046515;28;20549;-72
2023/05/25 02:24:25;;;;;;;12.57;7.78;;;;;;;11.93;100.00;93098.66;5046939;28;20049;-72
2023/05/25 02:26:52;;;;;;;11.07;7.47;;;;;;;11.85;100.00;93110.81;5047395;28;20049;-72
2023/05/25 02:29:19;;;;;;;12.63;8.40;;;;;;;11.84;100.00;93114.41;5046919;28;20521;-72
2023/05/25 02:31:45;;;;;;;13.25;7.97;;;;;;;11.81;100.00;93108.91;5046909;28;20045;-72
2023/05/25 02:34:14;;;;;;;12.73;8.05;;;;;;;11.79;100.00;93114.28;5046333;28;20037;-72
2023/05/25 02:36:42;;;;;;;10.57;7.28;;;;;;;11.79;100.00;93116.06;5047005;28;20484;-72
2023/05/25 02:39:09;;;;;;;13.60;8.25;;;;;;;11.78;100.00;93123.00;5050968;28;20290;-72
2023/05/25 02:41:37;;;;;;;15.05;8.52;;;;;;;11.77;100.00;93116.28;5051366;28;20110;-72
2023/05/25 02:44:05;;;;;;;13.70;8.40;;;;;;;11.74;100.00;93125.22;5050791;28;20544;-72
2023/05/25 02:46:32;;;;;;;10.75;7.97;;;;;;;11.73;100.00;93125.44;5051022;28;20049;-72
2023/05/25 02:48:59;;;;;;;13.05;7.57;;;;;;;11.73;100.00;93126.25;5050560;28;20045;-72
2023/05/25 02:51:26;;;;;;;24.25;8.63;;;;;;;11.70;100.00;93126.66;5051236;28;20049;-72
2023/05/25 02:53:52;;;;;;;13.73;8.32;;;;;;;11.65;100.00;93123.97;5050589;28;20092;-72
2023/05/25 02:56:20;;;;;;;12.52;8.52;;;;;;;11.63;100.00;93128.53;5050984;28;20103;-72
2023/05/25 02:58:48;;;;;;;12.63;7.97;;;;;;;11.60;100.00;93144.41;5050702;28;20088;-72
2023/05/25 03:01:17;;;;;;;9.95;7.47;;;;;;;11.55;100.00;93137.34;5050703;28;20053;-72
2023/05/25 03:03:44;;;;;;;16.42;8.98;;;;;;;11.57;100.00;93145.63;5049519;28;20052;-72
2023/05/25 03:06:11;;;;;;;21.90;9.27;;;;;;;11.54;100.00;93146.06;5050477;28;20559;-72
2023/05/25 03:08:38;;;;;;;17.02;8.93;;;;;;;11.51;100.00;93143.91;5050397;28;20041;-72
2023/05/25 03:11:05;;;;;;;17.30;9.18;;;;;;;11.53;100.00;93146.28;5050869;28;20041;-71
2023/05/25 03:13:32;;;;;;;12.45;8.43;;;;;;;11.49;100.00;93143.34;5050176;28;20056;-72
2023/05/25 03:16:00;;;;;;;28.48;11.30;;;;;;;11.53;100.00;93143.72;5050672;28;20419;-72
2023/05/25 03:18:27;;;;;;;15.65;8.25;;;;;;;11.54;100.00;93147.84;5050235;28;20049;-72
2023/05/25 03:20:54;;;;;;;13.90;8.38;;;;;;;11.45;100.00;93135.28;5050113;28;20045;-72
2023/05/25 03:23:20;;;;;;;18.70;10.52;;;;;;;11.57;100.00;93145.63;5050433;28;20467;-72
2023/05/25 03:25:47;;;;;;;14.32;8.57;;;;;;;11.56;100.00;93154.34;5049994;28;20421;-72
2023/05/25 03:28:14;;;;;;;13.90;8.13;;;;;;;11.57;100.00;93148.19;5049990;28;20037;-72
2023/05/25 03:30:41;;;;;;;12.75;8.95;;;;;;;11.57;100.00;93143.03;5049669;28;20059;-73
2023/05/25 03:33:09;;;;;;;14.77;8.30;;;;;;;11.59;100.00;93153.94;5049930;28;20460;-73
2023/05/25 03:35:36;;;;;;;14.77;8.23;;;;;;;11.61;100.00;93146.75;5049632;28;20041;-73
2023/05/25 03:38:03;;;;;;;25.95;11.23;;;;;;;11.44;100.00;93115.69;5050043;28;20049;-72
2023/05/25 03:40:30;;;;;;;24.35;11.43;;;;;;;11.70;100.00;93152.41;5049654;28;20045;-72
2023/05/25 03:42:56;;;;;;;24.10;10.57;;;;;;;11.73;100.00;93148.59;5033558;28;20049;-72
2023/05/25 03:45:23;;;;;;;22.25;10.73;;;;;;;11.78;100.00;93159.03;5049219;28;20052;-72
2023/05/25 03:47:50;;;;;;;14.52;8.88;;;;;;;11.79;100.00;93163.16;5049417;28;20052;-72
2023/05/25 03:50:18;;;;;;;13.00;8.45;;;;;;;11.81;100.00;93162.94;5048547;28;20049;-72
2023/05/25 03:52:45;;;;;;;15.18;8.38;;;;;;;11.81;100.00;93160.38;5049668;28;20048;-72
2023/05/25 03:55:14;;;;;;;14.68;8.82;;;;;;;11.80;100.00;93166.53;5049331;28;20501;-72
2023/05/25 03:57:40;;;;;;;15.68;8.60;;;;;;;11.84;100.00;93165.88;5049621;28;20049;-72
2023/05/25 04:00:09;;;;;;;13.52;8.35;;;;;;;11.85;100.00;93164.88;5049349;28;20439;-72
2023/05/25 04:02:36;;;;;;;16.27;8.35;;;;;;;11.92;100.00;93164.00;5048772;28;20053;-72
2023/05/25 04:05:03;;;;;;;12.27;8.38;;;;;;;11.97;100.00;93170.06;5048938;28;20057;-72
2023/05/25 04:07:31;;;;;;;13.43;8.13;;;;;;;12.01;100.00;93166.06;5049217;28;20048;-72
2023/05/25 04:09:59;;;;;;;13.40;8.70;;;;;;;12.03;100.00;93169.19;5049199;28;20049;-72
2023/05/25 04:12:26;;;;;;;12.45;8.30;;;;;;;12.11;100.00;93170.69;5048917;28;20060;-72
2023/05/25 04:14:52;;;;;;;15.57;9.18;;;;;;;12.17;100.00;93169.00;5048702;28;20044;-72
2023/05/25 04:17:23;;;;;;;17.73;9.43;;;;;;;12.23;100.00;93168.13;5048780;28;20106;-72
2023/05/25 04:19:50;;;;;;;23.45;11.38;;;;;;;12.36;100.00;93174.88;5049065;28;20049;-72
2023/05/25 04:22:17;;;;;;;14.45;10.70;;;;;;;12.46;100.00;93179.50;5049066;28;20099;-72
2023/05/25 04:24:45;;;;;;;18.02;10.45;;;;;;;12.50;100.00;93175.47;5048849;28;20055;-72
2023/05/25 04:27:13;;;;;;;19.27;11.80;;;;;;;12.40;100.00;93152.03;5048820;28;20098;-72
2023/05/25 04:29:39;;;;;;;17.88;10.63;;;;;;;12.69;100.00;93178.75;5047741;28;20064;-72
2023/05/25 04:32:08;;;;;;;18.45;11.02;;;;;;;12.81;100.00;93185.69;5048690;28;20045;-71
2023/05/25 04:34:35;;;;;;;22.80;11.32;;;;;;;12.94;100.00;93192.41;5048756;28;20118;-72
2023/05/25 04:37:04;;;;;;;15.80;9.35;;;;;;;13.07;100.00;93184.47;5048657;28;20068;-72
2023/05/25 04:39:31;;;;;;;17.10;9.57;;;;;;;13.18;100.00;93188.03;5048657;28;20163;-72
2023/05/25 04:42:03;;;;;;;17.80;9.32;;;;;;;13.35;100.00;93189.94;5049182;28;20053;-72
2023/05/25 04:44:29;;;;;;;17.80;8.93;;;;;;;13.45;100.00;93184.97;5022315;28;20068;-72
2023/05/25 04:46:58;;;;;;;17.08;9.20;;;;;;;13.61;100.00;93185.31;5048397;28;20049;-72
2023/05/25 04:49:25;;;;;;;23.40;10.20;;;;;;;13.67;100.00;93181.03;5048503;28;20501;-72
2023/05/25 04:51:52;;;;;;;15.38;9.23;;;;;;;13.83;100.00;93179.50;5048094;28;20049;-72
2023/05/25 04:54:18;;;;;;;14.85;8.88;;;;;;;14.01;100.00;93192.25;5048736;28;20052;-72
2023/05/25 04:56:45;;;;;;;13.55;8.55;;;;;;;14.03;100.00;93177.28;5048124;28;20045;-72
2023/05/25 04:59:13;;;;;;;13.43;8.38;;;;;;;14.21;100.00;93182.50;5048124;28;20044;-72
2023/05/25 05:01:40;;;;;;;17.60;8.52;;;;;;;14.35;100.00;93188.94;5047928;28;20049;-72
2023/05/25 05:04:07;;;;;;;13.85;8.40;;;;;;;14.51;100.00;93194.34;5048098;28;20052;-72
2023/05/25 05:06:35;;;;;;;14.00;7.68;;;;;;;14.67;100.00;93191.00;5048087;28;20051;-72
2023/05/25 05:09:02;;;;;;;20.70;9.80;;;;;;;14.81;100.00;93194.06;5047738;28;20044;-72
2023/05/25 05:11:29;;;;;;;18.08;8.30;;;;;;;14.97;100.00;93189.13;5046253;28;20052;-72
2023/05/25 05:13:56;;;;;;;10.73;7.78;;;;;;;15.13;100.00;93195.28;5036230;28;20411;-72
2023/05/25 05:16:24;;;;;;;11.40;7.30;;;;;;;15.20;100.00;93184.78;5047598;28;20049;-72
2023/05/25 05:18:51;;;;;;;14.38;7.72;;;;;;;15.40;100.00;93191.22;5048170;28;20079;-72
2023/05/25 05:21:18;;;;;;;12.88;7.72;;;;;;;15.57;100.00;93191.97;5047275;28;20045;-72
2023/05/25 05:23:45;;;;;;;15.68;8.45;;;;;;;15.68;100.00;93194.66;5047850;28;20064;-73
2023/05/25 05:26:13;;;;;;;12.13;7.13;;;;;;;15.82;100.00;93195.06;5047415;28;20040;-72
2023/05/25 05:28:40;;;;;;;11.27;7.38;;;;;;;15.96;100.00;93195.53;5047605;28;20045;-73
2023/05/25 05:31:07;;;;;;;11.02;8.07;;;;;;;16.12;100.00;93192.03;5034982;28;20091;-72
2023/05/25 05:33:35;;;;;;;12.50;8.13;;;;;;;16.28;100.00;93194.78;5043511;28;20571;-72
2023/05/25 05:36:03;;;;;;;12.07;8.90;;;;;;;16.46;100.00;93201.44;5047432;28;20049;-72
2023/05/25 05:38:30;;;;;;;22.13;9.05;;;;;;;16.67;100.00;93204.22;5047456;28;20049;-72
2023/05/25 05:40:57;;;;;;;18.85;8.93;;;;;;;16.86;99.33;93201.22;5047514;28;20049;-72
2023/05/25 05:43:24;;;;;;;15.85;9.35;;;;;;;17.01;99.07;93196.16;5046820;28;20059;-72
2023/05/25 05:45:51;;;;;;;20.15;11.07;;;;;;;17.11;98.39;93182.47;5047506;28;20543;-72
2023/05/25 05:48:17;;;;;;;17.13;9.15;;;;;;;17.23;99.64;93175.28;5047114;28;20186;-72
2023/05/25 05:50:45;;;;;;;19.73;9.32;;;;;;;17.48;94.78;93189.44;5046999;28;20040;-72
2023/05/25 05:53:12;;;;;;;17.60;9.23;;;;;;;17.68;97.32;93187.94;5047483;28;20106;-72
2023/05/25 05:55:39;;;;;;;16.13;9.98;;;;;;;17.98;95.32;93193.47;5046594;28;20044;-72
2023/05/25 05:58:06;;;;;;;24.48;10.55;;;;;;;18.16;91.55;93200.06;5047236;28;20053;-72
2023/05/25 06:00:33;;;;;;;27.02;10.48;;;;;;;18.32;90.57;93200.09;5047498;28;20449;-72
2023/05/25 06:03:00;;;;;;;17.45;9.27;;;;;;;18.48;89.96;93206.09;5047418;28;20053;-72
2023/05/25 06:05:26;;;;;;;22.77;10.07;;;;;;;18.40;88.87;93202.19;5047082;28;20081;-73
2023/05/25 06:07:55;;;;;;;23.15;8.63;;;;;;;18.62;90.03;93203.75;5047257;28;20056;-73
2023/05/25 06:10:21;;;;;;;22.23;9.48;;;;;;;18.82;89.68;93202.97;5046612;28;20584;-73
2023/05/25 06:12:48;;;;;;;21.38;8.07;;;;;;;18.94;88.45;93206.09;5045895;28;20041;-73
2023/05/25 06:15:15;;;;;;;22.08;8.30;;;;;;;19.11;89.66;93205.06;5047305;28;20045;-73
2023/05/25 06:17:42;;;;;;;22.90;9.27;;;;;;;19.02;87.05;93178.75;5047030;28;20139;-73
2023/05/25 06:20:10;;;;;;;17.42;8.88;;;;;;;19.33;88.79;93204.75;5046786;28;20552;-73
2023/05/25 06:22:37;;;;;;;22.73;8.75;;;;;;;19.40;86.73;93191.47;5046575;28;20065;-73
2023/05/25 06:25:09;;;;;;;21.30;10.27;;;;;;;19.53;87.60;93205.72;5046862;28;20045;-73
2023/05/25 06:27:35;;;;;;;21.83;9.18;;;;;;;19.49;88.64;93207.34;5046602;28;20124;-73
2023/05/25 06:30:02;;;;;;;14.73;8.05;;;;;;;18.95;90.64;93209.47;5046914;28;20045;-73
2023/05/25 06:32:29;;;;;;;17.50;8.50;;;;;;;18.78;93.18;93213.13;5046529;28;20045;-73
2023/05/25 06:34:56;;;;;;;25.75;9.10;;;;;;;18.85;94.47;93215.47;5047098;28;20045;-73
2023/05/25 06:37:23;;;;;;;27.60;10.07;;;;;;;18.88;95.95;93216.78;5046257;28;20501;-73
2023/05/25 06:39:49;;;;;;;31.63;10.27;;;;;;;18.85;94.84;93220.69;5046938;28;20049;-73
2023/05/25 06:42:18;;;;;;;31.27;10.50;;;;;;;18.93;94.44;93220.13;5046391;28;20049;-73
2023/05/25 06:44:44;;;;;;;38.17;11.55;;;;;;;19.06;94.03;93218.06;5046635;28;20132;-73
2023/05/25 06:47:11;;;;;;;33.00;11.38;;;;;;;19.24;93.27;93214.16;5046904;28;20110;-73
2023/05/25 06:49:38;;;;;;;34.47;10.73;;;;;;;19.38;92.60;93211.78;5046520;28;20524;-73
2023/05/25 06:52:06;;;;;;;36.10;10.52;;;;;;;19.49;93.18;93208.09;5046242;28;20052;-73
2023/05/25 06:54:32;;;;;;;23.52;10.23;;;;;;;19.62;93.45;93211.19;5046935;28;20067;-73
2023/05/25 06:57:00;;;;;;;24.92;9.80;;;;;;;19.73;93.21;93212.69;5046467;28;20045;-73
2023/05/25 06:59:28;;;;;;;28.75;9.75;;;;;;;19.53;97.88;93182.28;5046744;28;20049;-73
2023/05/25 07:01:55;;;;;;;28.05;10.27;;;;;;;19.64;99.99;93211.72;5046022;28;20535;-73
2023/05/25 07:04:22;;;;;;;25.83;10.93;;;;;;;19.70;100.00;93220.28;5046900;28;20151;-72
2023/05/25 07:06:50;;;;;;;21.85;10.73;;;;;;;19.68;100.00;93214.56;5036589;28;20136;-72
2023/05/25 07:09:17;;;;;;;32.38;10.68;;;;;;;19.65;100.00;93218.47;5043240;28;20131;-72
2023/05/25 07:11:44;;;;;;;24.75;10.52;;;;;;;19.63;100.00;93218.72;5045804;28;20049;-72
2023/05/25 07:14:11;;;;;;;27.52;10.20;;;;;;;19.58;100.00;93220.59;5045703;28;20091;-72
2023/05/25 07:16:39;;;;;;;25.67;11.02;;;;;;;19.38;100.00;93227.41;5045603;28;20102;-73
2023/05/25 07:19:06;;;;;;;26.17;13.40;;;;;;;19.19;100.00;93219.38;5046714;28;20048;-73
2023/05/25 07:21:33;;;;;;;27.98;11.63;;;;;;;18.92;100.00;93218.59;5047192;28;20056;-73
2023/05/25 07:24:00;;;;;;;22.98;11.70;;;;;;;18.80;100.00;93213.63;5046268;28;20037;-73
2023/05/25 07:26:27;;;;;;;32.17;11.65;;;;;;;18.51;100.00;93214.16;5049252;28;20052;-73
2023/05/25 07:28:54;;;;;;;17.95;9.77;;;;;;;18.08;100.00;93208.34;5050419;28;20053;-73
2023/05/25 07:31:22;;;;;;;10.85;7.88;;;;;;;17.75;100.00;93218.88;5048467;28;20104;-73
2023/05/25 07:33:50;;;;;;;9.32;7.00;;;;;;;17.36;100.00;93220.00;5050053;28;20561;-73
2023/05/25 07:36:17;;;;;;;11.25;6.93;;;;;;;16.79;100.00;93227.38;5050452;28;20103;-72
2023/05/25 07:38:44;;;;;;;8.63;6.43;;;;;;;16.61;100.00;93228.53;5049868;28;20064;-72
2023/05/25 07:41:12;;;;;;;8.65;5.95;;;;;;;16.49;100.00;93224.28;5046316;28;20095;-73
2023/05/25 07:43:39;;;;;;;8.20;7.03;;;;;;;16.37;100.00;93195.13;5050025;28;20458;-73
2023/05/25 07:46:05;;;;;;;9.38;7.13;;;;;;;16.35;100.00;93230.91;5043737;28;20536;-73
2023/05/25 07:48:32;;;;;;;8.27;6.80;;;;;;;16.10;100.00;93227.78;5043488;28;20049;-72
2023/05/25 07:51:00;;;;;;;8.77;6.45;;;;;;;16.07;100.00;93224.91;5023979;28;20090;-72
2023/05/25 07:53:27;;;;;;;8.60;6.57;;;;;;;16.24;100.00;93214.47;5049236;28;20052;-72
2023/05/25 07:55:54;;;;;;;8.77;6.47;;;;;;;16.39;100.00;93214.59;5049787;28;20385;-72
2023/05/25 07:58:21;;;;;;;8.05;5.90;;;;;;;16.39;100.00;93221.59;5049715;28;20446;-72
2023/05/25 08:00:48;;;;;;;9.38;6.68;;;;;;;16.45;100.00;93223.22;5049830;28;20520;-72
2023/05/25 08:03:15;;;;;;;10.77;7.15;;;;;;;16.82;100.00;93213.91;5049851;28;20045;-73
2023/05/25 08:05:42;;;;;;;10.18;6.55;;;;;;;17.00;100.00;93217.94;5049572;28;20114;-73
2023/05/25 08:08:11;;;;;;;14.82;9.43;;;;;;;17.35;100.00;93206.22;5048899;28;20624;-73
2023/05/25 08:10:37;;;;;;;13.82;7.93;;;;;;;17.78;100.00;93202.78;5049091;28;20084;-73
2023/05/25 08:13:04;;;;;;;8.60;6.10;;;;;;;18.19;100.00;93206.56;5048952;28;20060;-73
2023/05/25 08:15:31;;;;;;;7.60;5.43;;;;;;;18.29;100.00;93204.75;5049477;28;20140;-72
2023/05/25 08:17:58;;;;;;;9.65;5.93;;;;;;;18.57;100.00;93207.16;5035911;28;20061;-73
2023/05/25 08:20:24;;;;;;;7.00;3.88;;;;;;;19.00;100.00;93195.66;5048670;28;20411;-72
2023/05/25 08:22:53;;;;;;;5.82;4.38;;;;;;;19.84;100.00;93202.22;5048940;28;20450;-72
2023/05/25 08:25:21;;;;;;;8.18;4.93;;;;;;;20.35;100.00;93201.22;5048940;28;20052;-73
2023/05/25 08:27:48;;;;;;;7.63;4.70;;;;;;;20.58;100.00;93198.97;5049549;28;20056;-73
2023/05/25 08:30:15;;;;;;;6.97;4.18;;;;;;;20.55;100.00;93205.50;5048615;28;20041;-72
2023/05/25 08:32:41;;;;;;;7.13;4.18;;;;;;;21.03;100.00;93206.75;5048975;28;20053;-72
2023/05/25 08:35:09;;;;;;;5.97;3.88;;;;;;;20.96;100.00;93212.28;5048397;28;20489;-73
2023/05/25 08:37:36;;;;;;;8.88;4.22;;;;;;;19.77;100.00;93226.00;5048571;28;20098;-72
2023/05/25 08:40:06;;;;;;;4.78;2.90;;;;;;;19.04;93.66;93222.78;5035132;28;20095;-72
2023/05/25 08:42:34;;;;;;;4.20;2.63;;;;;;;18.85;97.63;93225.09;5048656;28;20128;-72
2023/05/25 08:45:01;;;;;;;3.72;2.85;;;;;;;18.73;99.27;93231.34;5046740;28;20063;-72
2023/05/25 08:47:31;;;;;;;4.97;3.17;;;;;;;18.75;100.00;93231.84;5048595;28;20041;-72
2023/05/25 08:50:00;;;;;;;5.10;2.90;;;;;;;17.65;100.00;93234.41;5048816;28;20052;-72
2023/05/25 08:52:32;;;;;;;5.13;3.80;;;;;;;16.98;100.00;93242.56;5048155;28;20049;-72
2023/05/25 08:55:04;;;;;;;9.77;5.13;;;;;;;16.68;100.00;93255.81;5033756;28;20054;-72
2023/05/25 08:57:40;;;;;;;5.80;4.15;;;;;;;16.27;100.00;93256.22;5046651;28;20048;-72
2023/05/25 09:00:09;;;;;;;7.03;3.90;;;;;;;15.97;100.00;93259.28;5035669;28;20057;-71
2023/05/25 09:02:40;;;;;;;6.70;4.95;;;;;;;15.94;100.00;93257.16;5047938;28;20076;-72
2023/05/25 09:05:08;;;;;;;6.40;5.00;;;;;;;15.57;100.00;93230.81;5048383;28;20067;-72
2023/05/25 09:07:35;;;;;;;6.82;5.13;;;;;;;15.35;100.00;93257.44;5047892;28;20466;-72
2023/05/25 09:12:51;;;;;;;8.32;4.60;;;;;;;15.58;100.00;93252.28;5048300;28;20055;-72
2023/05/25 09:15:18;;;;;;;6.82;5.03;;;;;;;15.62;100.00;93256.75;5048117;28;20084;-72
2023/05/25 09:17:45;;;;;;;7.13;3.90;;;;;;;15.79;100.00;93258.53;5048008;28;20045;-71
2023/05/25 09:20:12;;;;;;;8.73;4.88;;;;;;;15.76;100.00;93256.41;5047207;28;20052;-72
2023/05/25 09:22:40;;;;;;;5.90;4.15;;;;;;;15.85;100.00;93252.38;5047789;28;20080;-72
2023/05/25 09:25:08;;;;;;;7.43;4.45;;;;;;;15.93;100.00;93253.78;5047857;28;20399;-72
2023/05/25 09:27:36;;;;;;;6.32;4.57;;;;;;;15.93;100.00;93251.19;5047897;28;20053;-72
2023/05/25 09:30:06;;;;;;;7.00;4.53;;;;;;;16.16;100.00;93242.38;5047863;28;20410;-72
2023/05/25 09:32:32;;;;;;;7.85;4.45;;;;;;;16.31;100.00;93248.75;5034897;28;20049;-72
2023/05/25 09:35:07;;;;;;;5.95;3.50;;;;;;;16.37;100.00;93258.13;5047081;28;20056;-72
2023/05/25 09:37:34;;;;;;;5.85;3.60;;;;;;;16.27;100.00;93256.22;5047401;28;20041;-72
2023/05/25 09:40:01;;;;;;;6.18;3.35;;;;;;;16.35;100.00;93262.00;5047489;28;20090;-72
2023/05/25 09:42:27;;;;;;;5.25;3.05;;;;;;;16.58;100.00;93258.34;5037708;28;20048;-72
2023/05/25 09:44:54;;;;;;;7.45;2.88;;;;;;;16.77;100.00;93252.78;5047276;28;20053;-72
2023/05/25 09:47:22;;;;;;;4.15;2.13;;;;;;;16.71;100.00;93244.16;5046549;28;20045;-72
2023/05/25 09:49:49;;;;;;;3.45;2.20;;;;;;;17.04;100.00;93239.00;5047002;28;20552;-72
2023/05/25 09:52:16;;;;;;;4.57;2.17;;;;;;;17.47;100.00;93239.00;5047501;28;20052;-73
2023/05/25 09:54:44;;;;;;;3.55;1.85;;;;;;;17.48;100.00;93243.16;5047116;28;20076;-72
2023/05/25 09:57:11;;;;;;;4.45;2.60;;;;;;;17.52;100.00;93239.03;5047410;28;20045;-72
2023/05/25 09:59:38;;;;;;;3.88;2.15;;;;;;;17.41;100.00;93247.81;5047075;28;20045;-72
2023/05/25 10:02:06;;;;;;;4.38;2.17;;;;;;;17.62;100.00;93239.09;5046779;28;20040;-72
2023/05/25 10:04:34;;;;;;;2.83;2.20;;;;;;;17.78;100.00;93231.38;5047052;28;20567;-72
2023/05/25 10:07:04;;;;;;;3.97;2.40;;;;;;;18.11;100.00;93231.25;5046182;28;20052;-73
2023/05/25 10:09:31;;;;;;;4.05;2.65;;;;;;;18.03;100.00;93227.28;5046748;28;20045;-72
2023/05/25 10:12:00;;;;;;;5.13;2.67;;;;;;;18.28;100.00;93229.19;5046129;28;20048;-72
2023/05/25 10:14:28;;;;;;;4.05;2.40;;;;;;;17.95;100.00;93228.56;5021715;28;20519;-72
2023/05/25 10:16:58;;;;;;;4.10;2.78;;;;;;;18.08;100.00;93232.53;5047033;28;20392;-72
2023/05/25 10:19:31;;;;;;;3.65;2.42;;;;;;;17.62;100.00;93240.91;5047046;28;20063;-72
2023/05/25 10:22:06;;;;;;;3.17;2.58;;;;;;;17.94;100.00;93236.59;5046930;28;20052;-72
2023/05/25 10:24:42;;;;;;;4.88;2.75;;;;;;;18.29;100.00;93222.97;5046717;28;20053;-72
2023/05/25 10:27:11;;;;;;;;;;;;;;;18.66;97.96;93231.59;5047183;28;20044;-72
2023/05/25 10:29:39;;;;;;;5.13;2.33;;;;;;;18.44;90.51;93237.03;5046793;28;19920;-72
2023/05/25 10:32:07;;;;;;;3.42;2.25;;;;;;;18.47;91.34;93243.53;5047040;28;20087;-72
2023/05/25 10:34:35;;;;;;;5.20;2.65;;;;;;;18.87;93.46;93230.81;5046355;28;20045;-72
2023/05/25 10:37:04;;;;;;;3.30;2.50;;;;;;;19.14;89.10;93232.38;5046532;28;20051;-72
2023/05/25 10:39:32;;;;;;;5.05;2.28;;;;;;;19.52;83.36;93226.88;5046929;28;20084;-72
2023/05/25 10:42:01;;;;;;;3.60;2.60;;;;;;;19.81;80.59;93234.81;5034300;28;20095;-72
2023/05/25 10:44:29;;;;;;;4.35;2.47;;;;;;;19.72;77.61;93229.38;5046618;28;20402;-72
2023/05/25 10:46:57;;;;;;;4.68;2.50;;;;;;;19.82;75.79;93238.22;5046429;28;20056;-72
2023/05/25 10:49:31;;;;;;;3.17;1.92;;;;;;;19.76;79.14;93230.41;5046210;28;20494;-72
2023/05/25 10:52:00;;;;;;;3.83;2.47;;;;;;;19.88;78.50;93227.53;5046820;28;20136;-72
2023/05/25 10:54:34;;;;;;;4.13;2.78;;;;;;;20.09;84.35;93218.84;5046829;28;20049;-72
2023/05/25 10:57:11;;;;;;;5.03;2.65;;;;;;;20.52;87.35;93205.28;5046550;28;20080;-72
2023/05/25 10:59:44;;;;;;;2.97;1.92;;;;;;;20.88;79.51;93223.31;5049597;28;20444;-70
2023/05/25 11:02:11;;;;;;;4.00;2.70;;;;;;;21.01;78.92;93211.44;5050180;28;20041;-70
2023/05/25 11:04:38;;;;;;;3.40;1.90;;;;;;;20.99;76.85;93218.00;5050352;28;20056;-70
2023/05/25 11:07:12;;;;;;;4.03;2.50;;;;;;;21.41;77.74;93221.78;5049067;28;20095;-73
2023/05/25 11:09:43;;;;;;;2.67;1.90;;;;;;;20.49;74.59;93132.75;5046803;28;20049;-72
2023/05/25 11:12:21;;;;;;;4.22;2.28;;;;;;;21.29;73.93;93226.63;5041636;28;20044;-72
2023/05/25 11:15:09;;;;;;;6.00;2.47;;;;;;;21.08;70.76;93221.59;5045509;28;20077;-72
2023/05/25 11:18:05;;;;;;;3.03;2.05;;;;;;;21.11;67.64;93226.28;5049926;28;20067;-72
2023/05/25 11:20:34;;;;;;;6.20;2.30;;;;;;;21.31;71.90;93220.06;5045053;28;20433;-72
2023/05/25 11:23:31;;;;;;;6.88;2.30;;;;;;;21.79;69.98;93209.94;5051526;28;20045;-72
2023/05/25 11:26:24;;;;;;;7.03;1.90;;;;;;;22.43;67.96;93209.59;5051758;28;20068;-73
2023/05/25 11:28:52;;;;;;;3.10;2.10;;;;;;;22.78;65.01;93223.25;5051725;28;20123;-72